createdAt,value
2022-08-10T00:01:51.177Z,100.00
2022-08-10T00:04:21.300Z,100.00
2022-08-10T00:06:53.337Z,100.00
2022-08-10T00:09:21.450Z,100.00
2022-08-10T00:11:49.276Z,100.00
2022-08-10T00:14:16.891Z,100.00
2022-08-10T00:16:46.685Z,100.00
2022-08-10T00:19:16.470Z,100.00
2022-08-10T00:21:45.914Z,100.00
2022-08-10T00:24:14.053Z,100.00
2022-08-10T00:28:02.053Z,100.00
2022-08-10T00:29:30.730Z,100.00
2022-08-10T00:31:59.512Z,100.00
2022-08-10T00:34:31.619Z,100.00
2022-08-10T00:37:00.327Z,100.00
2022-08-10T00:39:29.317Z,100.00
2022-08-10T00:42:06.949Z,100.00
2022-08-10T00:44:46.435Z,100.00
2022-08-10T00:47:35.943Z,100.00
2022-08-10T00:50:07.816Z,100.00
2022-08-10T00:52:36.774Z,100.00
2022-08-10T00:55:05.580Z,100.00
2022-08-10T00:57:33.315Z,100.00
2022-08-10T01:00:00.941Z,100.00
2022-08-10T01:02:30.022Z,100.00
2022-08-10T01:05:01.738Z,100.00
2022-08-10T01:07:51.621Z,100.00
2022-08-10T01:10:33.823Z,100.00
2022-08-10T01:13:26.620Z,100.00
2022-08-10T01:16:00.496Z,100.00
2022-08-10T01:18:47.276Z,100.00
2022-08-10T01:21:53.907Z,100.00
2022-08-10T01:24:30.594Z,100.00
2022-08-10T01:27:04.231Z,100.00
2022-08-10T01:30:05.385Z,100.00
2022-08-10T01:33:20.188Z,100.00
2022-08-10T01:36:05.732Z,100.00
2022-08-10T01:38:34.952Z,100.00
2022-08-10T01:41:07.026Z,100.00
2022-08-10T01:43:39.255Z,100.00
2022-08-10T01:46:08.160Z,100.00
2022-08-10T01:48:50.605Z,100.00
2022-08-10T01:51:24.033Z,100.00
2022-08-10T01:53:55.368Z,100.00
2022-08-10T01:56:25.411Z,100.00
2022-08-10T01:58:57.408Z,100.00
2022-08-10T02:01:27.370Z,100.00
2022-08-10T02:04:03.505Z,100.00
2022-08-10T02:06:43.811Z,100.00
2022-08-10T02:09:14.853Z,100.00
2022-08-10T02:12:06.515Z,100.00
2022-08-10T02:14:34.917Z,100.00
2022-08-10T02:17:07.179Z,100.00
2022-08-10T02:19:36.788Z,100.00
2022-08-10T02:22:36.859Z,100.00
2022-08-10T02:24:53.280Z,100.00
2022-08-10T02:27:23.335Z,100.00
2022-08-10T02:29:51.564Z,100.00
2022-08-10T02:32:24.534Z,100.00
2022-08-10T02:35:07.013Z,100.00
2022-08-10T02:37:38.262Z,100.00
2022-08-10T02:40:06.523Z,100.00
2022-08-10T02:45:27.144Z,100.00
2022-08-10T02:46:01.718Z,100.00
2022-08-10T02:48:33.418Z,100.00
2022-08-10T02:51:07.271Z,100.00
2022-08-10T02:53:54.513Z,100.00
2022-08-10T02:56:46.170Z,100.00
2022-08-10T02:59:17.592Z,100.00
2022-08-10T03:01:47.997Z,100.00
2022-08-10T03:04:20.066Z,100.00
2022-08-10T03:07:11.017Z,100.00
2022-08-10T03:09:39.157Z,100.00
2022-08-10T03:12:34.857Z,100.00
2022-08-10T03:14:57.346Z,100.00
2022-08-10T03:17:25.366Z,100.00
2022-08-10T03:20:35.559Z,100.00
2022-08-10T03:22:42.089Z,100.00
2022-08-10T03:25:12.443Z,100.00
2022-08-10T03:27:41.353Z,100.00
2022-08-10T03:30:33.007Z,100.00
2022-08-10T03:32:57.798Z,100.00
2022-08-10T03:35:26.807Z,100.00
2022-08-10T03:37:59.124Z,100.00
2022-08-10T03:40:44.864Z,100.00
2022-08-10T03:43:17.248Z,100.00
2022-08-10T03:45:55.406Z,100.00
2022-08-10T03:48:32.266Z,100.00
2022-08-10T03:51:13.277Z,100.00
2022-08-10T03:54:06.230Z,100.00
2022-08-10T03:56:32.261Z,100.00
2022-08-10T03:59:01.333Z,100.00
2022-08-10T04:02:52.869Z,100.00
2022-08-10T04:04:24.036Z,100.00
2022-08-10T04:06:55.776Z,100.00
2022-08-10T04:09:29.659Z,100.00
2022-08-10T04:12:13.675Z,100.00
2022-08-10T04:14:49.420Z,100.00
2022-08-10T04:18:05.169Z,100.00
2022-08-10T04:20:35.006Z,100.00
2022-08-10T04:23:08.201Z,100.00
2022-08-10T04:25:37.445Z,100.00
2022-08-10T04:28:05.988Z,100.00
2022-08-10T04:30:36.083Z,95.24
2022-08-10T04:33:05.989Z,95.05
2022-08-10T04:35:35.002Z,96.34
2022-08-10T04:38:03.772Z,100.00
2022-08-10T04:40:32.078Z,100.00
2022-08-10T04:43:11.760Z,100.00
2022-08-10T04:45:49.357Z,100.00
2022-08-10T04:48:42.147Z,100.00
2022-08-10T04:51:18.047Z,100.00
2022-08-10T04:54:03.923Z,100.00
2022-08-10T04:56:38.788Z,100.00
2022-08-10T04:59:09.425Z,100.00
2022-08-10T05:02:30.403Z,100.00
2022-08-10T05:04:35.446Z,93.33
2022-08-10T05:07:15.995Z,92.31
2022-08-10T05:10:02.276Z,92.72
2022-08-10T05:12:38.991Z,88.58
2022-08-10T05:15:10.233Z,86.45
2022-08-10T05:17:39.322Z,85.10
2022-08-10T05:20:09.266Z,85.43
2022-08-10T05:22:44.816Z,86.41
2022-08-10T05:25:15.185Z,90.25
2022-08-10T05:27:43.739Z,93.07
2022-08-10T05:30:14.210Z,95.38
2022-08-10T05:32:59.131Z,98.01
2022-08-10T05:35:39.097Z,100.00
2022-08-10T05:38:18.321Z,100.00
2022-08-10T05:40:48.114Z,100.00
2022-08-10T05:43:22.727Z,100.00
2022-08-10T05:46:19.939Z,100.00
2022-08-10T05:48:57.116Z,100.00
2022-08-10T05:51:28.789Z,100.00
2022-08-10T05:54:02.576Z,100.00
2022-08-10T05:56:54.799Z,100.00
2022-08-10T06:00:11.146Z,97.44
2022-08-10T06:02:30.658Z,92.70
2022-08-10T06:05:05.662Z,87.76
2022-08-10T06:07:35.908Z,84.43
2022-08-10T06:10:03.995Z,82.55
2022-08-10T06:12:55.072Z,79.56
2022-08-10T06:15:50.227Z,76.75
2022-08-10T06:18:15.981Z,72.94
2022-08-10T06:20:43.849Z,73.84
2022-08-10T06:23:13.788Z,72.46
2022-08-10T06:26:09.783Z,73.71
2022-08-10T06:28:31.863Z,74.35
2022-08-10T06:31:00.727Z,77.48
2022-08-10T06:33:31.014Z,83.87
2022-08-10T06:36:05.730Z,89.23
2022-08-10T06:38:38.800Z,91.25
2022-08-10T06:41:19.968Z,90.09
2022-08-10T06:43:53.253Z,86.54
2022-08-10T06:46:22.401Z,83.14
2022-08-10T06:48:52.204Z,78.01
2022-08-10T06:51:29.091Z,76.90
2022-08-10T06:54:03.917Z,75.62
2022-08-10T06:56:37.628Z,74.92
2022-08-10T06:59:21.735Z,77.19
2022-08-10T07:02:01.517Z,81.30
2022-08-10T07:04:38.604Z,84.77
2022-08-10T07:07:07.500Z,88.65
2022-08-10T07:09:40.073Z,92.82
2022-08-10T07:12:10.810Z,93.26
2022-08-10T07:14:41.995Z,95.79
2022-08-10T07:17:16.724Z,99.46
2022-08-10T07:19:52.373Z,100.00
2022-08-10T07:23:01.649Z,100.00
2022-08-10T07:25:13.312Z,100.00
2022-08-10T07:28:00.419Z,100.00
2022-08-10T07:30:37.572Z,100.00
2022-08-10T07:33:20.761Z,100.00
2022-08-10T07:35:49.422Z,100.00
2022-08-10T07:38:21.577Z,98.10
2022-08-10T07:40:52.287Z,96.60
2022-08-10T07:43:25.833Z,96.85
2022-08-10T07:46:00.206Z,96.67
2022-08-10T07:48:31.529Z,93.89
2022-08-10T07:51:02.290Z,95.44
2022-08-10T07:53:35.813Z,93.51
2022-08-10T07:56:16.810Z,95.42
2022-08-10T07:59:10.245Z,96.90
2022-08-10T08:01:48.536Z,96.66
2022-08-10T08:04:24.320Z,93.73
2022-08-10T08:07:02.259Z,93.98
2022-08-10T08:09:35.354Z,90.28
2022-08-10T08:12:03.859Z,89.33
2022-08-10T08:14:36.881Z,91.36
2022-08-10T08:17:08.370Z,92.52
2022-08-10T08:19:45.773Z,93.49
2022-08-10T08:24:10.890Z,93.73
2022-08-10T08:25:14.522Z,94.42
2022-08-10T08:27:47.586Z,95.56
2022-08-10T08:30:26.812Z,95.62
2022-08-10T08:32:56.492Z,96.32
2022-08-10T08:35:25.119Z,96.10
2022-08-10T08:38:31.411Z,95.54
2022-08-10T08:40:43.181Z,92.65
2022-08-10T08:43:45.542Z,93.60
2022-08-10T08:46:43.691Z,91.91
2022-08-10T08:50:09.208Z,92.12
2022-08-10T08:52:42.827Z,92.07
2022-08-10T08:55:55.322Z,85.54
2022-08-10T08:58:39.319Z,84.55
2022-08-10T09:01:38.004Z,85.51
2022-08-10T09:04:47.708Z,84.94
2022-08-10T09:07:39.434Z,84.67
2022-08-10T09:10:12.196Z,86.13
2022-08-10T09:12:52.982Z,87.50
2022-08-10T09:15:40.427Z,87.99
2022-08-10T09:18:24.944Z,87.67
2022-08-10T09:21:07.179Z,88.04
2022-08-10T09:24:04.285Z,86.87
2022-08-10T09:26:43.869Z,87.21
2022-08-10T09:29:15.530Z,84.60
2022-08-10T09:31:55.517Z,81.80
2022-08-10T09:36:21.262Z,81.07
2022-08-10T09:38:04.884Z,81.06
2022-08-10T09:41:12.290Z,82.98
2022-08-10T09:44:02.941Z,82.11
2022-08-10T09:46:52.232Z,82.23
2022-08-10T09:50:55.737Z,80.33
2022-08-10T09:53:49.982Z,81.58
2022-08-10T10:03:25.962Z,80.55
2022-08-10T10:06:18.949Z,80.28
2022-08-10T10:09:12.901Z,80.66
2022-08-10T10:11:48.110Z,81.44
2022-08-10T10:14:36.346Z,83.21
2022-08-10T10:17:10.237Z,83.64
2022-08-10T10:19:59.637Z,83.74
2022-08-10T10:23:01.910Z,85.59
2022-08-10T10:25:50.196Z,87.56
2022-08-10T10:29:15.101Z,85.81
2022-08-10T10:31:39.932Z,86.60
2022-08-10T10:34:36.234Z,86.19
2022-08-10T10:37:07.159Z,83.63
2022-08-10T10:39:43.175Z,83.35
2022-08-10T10:42:45.978Z,83.14
2022-08-10T10:45:20.218Z,81.51
2022-08-10T10:48:02.999Z,80.46
2022-08-10T10:50:55.233Z,79.52
2022-08-10T10:53:53.693Z,80.19
2022-08-10T10:56:31.611Z,80.10
2022-08-10T10:59:16.021Z,79.27
2022-08-10T11:02:26.660Z,76.33
2022-08-10T11:05:35.565Z,77.62
2022-08-10T11:08:20.353Z,78.59
2022-08-10T11:12:00.711Z,78.38
2022-08-10T11:14:29.303Z,77.42
2022-08-10T11:17:15.098Z,78.11
2022-08-10T11:20:00.379Z,76.62
2022-08-10T11:22:36.860Z,75.56
2022-08-10T11:25:46.104Z,77.31
2022-08-10T11:28:22.536Z,79.29
2022-08-10T11:30:50.524Z,80.23
2022-08-10T11:34:04.046Z,81.29
2022-08-10T11:36:43.494Z,82.26
2022-08-10T11:39:26.669Z,80.38
2022-08-10T11:42:09.205Z,78.81
2022-08-10T11:44:48.848Z,76.62
2022-08-10T11:47:23.681Z,77.03
2022-08-10T11:49:51.678Z,76.54
2022-08-10T11:52:29.661Z,76.26
2022-08-10T11:55:01.322Z,75.83
2022-08-10T11:57:53.586Z,75.86
2022-08-10T12:00:21.670Z,74.51
2022-08-10T12:03:11.322Z,73.25
2022-08-10T12:05:55.399Z,71.85
2022-08-10T12:10:11.307Z,72.41
2022-08-10T12:11:41.774Z,70.80
2022-08-10T12:14:22.211Z,69.83
2022-08-10T12:17:04.089Z,69.55
2022-08-10T12:19:59.626Z,68.71
2022-08-10T12:23:05.662Z,68.42
2022-08-10T12:25:55.707Z,66.75
2022-08-10T12:28:50.121Z,67.17
2022-08-10T12:31:23.640Z,66.40
2022-08-10T12:34:03.019Z,65.52
2022-08-10T12:36:43.416Z,66.18
2022-08-10T12:39:32.664Z,65.13
2022-08-10T12:42:39.016Z,65.79
2022-08-10T12:45:17.484Z,64.35
2022-08-10T12:47:57.582Z,64.96
2022-08-10T12:50:41.438Z,65.20
2022-08-10T12:53:40.173Z,65.87
2022-08-10T12:56:07.918Z,64.74
2022-08-10T12:58:59.753Z,63.44
2022-08-10T13:02:06.919Z,64.67
2022-08-10T13:04:32.408Z,65.29
2022-08-10T13:07:03.988Z,65.40
2022-08-10T13:09:32.588Z,66.01
2022-08-10T13:12:35.042Z,65.19
2022-08-10T13:14:59.683Z,62.76
2022-08-10T13:17:39.557Z,62.22
2022-08-10T13:20:25.349Z,62.31
2022-08-10T13:22:58.917Z,62.35
2022-08-10T13:25:31.583Z,62.25
2022-08-10T13:28:35.470Z,63.79
2022-08-10T13:31:07.747Z,66.31
2022-08-10T13:34:39.631Z,67.91
2022-08-10T13:36:40.283Z,67.71
2022-08-10T13:39:08.789Z,67.19
2022-08-10T13:41:50.640Z,68.99
2022-08-10T13:44:33.011Z,70.70
2022-08-10T13:47:01.102Z,72.36
2022-08-10T13:49:31.439Z,73.44
2022-08-10T13:51:59.078Z,73.49
2022-08-10T13:54:41.388Z,74.09
2022-08-10T13:57:11.706Z,72.74
2022-08-10T14:00:33.692Z,73.46
2022-08-10T14:03:06.094Z,74.81
2022-08-10T14:05:36.410Z,76.57
2022-08-10T14:08:13.822Z,79.79
2022-08-10T14:11:02.028Z,80.45
2022-08-10T14:13:37.481Z,82.91
2022-08-10T14:16:19.933Z,82.96
2022-08-10T14:18:50.655Z,83.69
2022-08-10T14:21:21.613Z,81.28
2022-08-10T14:23:52.895Z,81.35
2022-08-10T14:26:26.969Z,82.40
2022-08-10T14:32:02.300Z,83.12
2022-08-10T14:36:16.914Z,83.55
2022-08-10T14:37:44.159Z,83.85
2022-08-10T14:40:23.132Z,84.62
2022-08-10T14:42:53.212Z,85.38
2022-08-10T14:45:41.498Z,84.18
2022-08-10T14:48:16.971Z,84.36
2022-08-10T14:50:55.241Z,84.72
2022-08-10T14:53:30.854Z,85.89
2022-08-10T15:02:01.423Z,87.50
2022-08-10T15:04:37.923Z,87.36
2022-08-10T15:07:24.323Z,86.72
2022-08-10T15:10:10.528Z,85.78
2022-08-10T15:18:13.677Z,88.43
2022-08-10T15:21:02.361Z,89.67
2022-08-10T15:27:16.125Z,92.21
2022-08-10T15:30:17.483Z,91.90
2022-08-10T15:33:21.549Z,93.53
2022-08-10T15:36:27.904Z,93.86
2022-08-10T15:40:21.557Z,94.43
2022-08-10T15:43:25.169Z,94.46
2022-08-10T16:17:06.656Z,100.00
2022-08-10T16:19:42.296Z,100.00
2022-08-10T16:22:34.008Z,100.00
2022-08-10T16:25:13.570Z,100.00
2022-08-10T16:27:46.577Z,100.00
2022-08-10T16:30:21.331Z,100.00
2022-08-10T16:32:50.903Z,100.00
2022-08-10T16:35:22.179Z,100.00
2022-08-10T16:38:12.132Z,100.00
2022-08-10T16:40:42.659Z,100.00
2022-08-10T16:43:12.844Z,100.00
2022-08-10T16:45:48.097Z,100.00
2022-08-10T16:48:49.529Z,100.00
2022-08-10T16:51:45.161Z,100.00
2022-08-10T16:54:27.846Z,100.00
2022-08-10T16:59:47.610Z,100.00
2022-08-10T17:02:17.951Z,100.00
2022-08-10T17:04:47.583Z,100.00
2022-08-10T17:07:18.058Z,100.00
2022-08-10T17:09:51.422Z,100.00
2022-08-10T17:12:27.045Z,100.00
2022-08-10T17:15:09.134Z,100.00
2022-08-10T17:17:49.567Z,100.00
2022-08-10T17:20:42.115Z,100.00
2022-08-10T17:23:26.331Z,100.00
2022-08-10T17:31:56.633Z,100.00
2022-08-10T17:34:37.465Z,100.00
2022-08-10T17:37:26.032Z,100.00
2022-08-10T17:40:39.518Z,100.00
2022-08-10T17:43:11.154Z,100.00
2022-08-10T17:45:49.008Z,100.00
2022-08-10T17:57:40.739Z,100.00
2022-08-10T18:00:30.970Z,100.00
2022-08-10T18:06:13.388Z,100.00
2022-08-10T18:09:11.463Z,100.00
2022-08-10T18:11:46.577Z,100.00
2022-08-10T18:17:41.498Z,100.00
2022-08-10T18:20:28.353Z,100.00
2022-08-10T18:23:26.900Z,100.00
2022-08-10T18:26:05.627Z,100.00
2022-08-10T19:44:46.059Z,100.00
2022-08-10T19:47:36.750Z,100.00
2022-08-10T19:50:21.886Z,100.00
2022-08-10T19:52:59.658Z,100.00
2022-08-10T19:55:41.379Z,100.00
2022-08-10T19:58:21.328Z,100.00
2022-08-10T20:01:00.569Z,100.00
2022-08-10T20:03:41.790Z,100.00
2022-08-10T20:06:19.568Z,100.00
2022-08-10T20:09:08.629Z,100.00
2022-08-10T20:11:47.193Z,100.00
2022-08-10T20:14:23.150Z,100.00
2022-08-10T20:16:56.211Z,100.00
2022-08-10T20:19:52.977Z,100.00
2022-08-10T20:22:28.754Z,100.00
2022-08-10T20:25:04.121Z,100.00
2022-08-10T20:28:00.184Z,100.00
2022-08-10T20:30:32.574Z,100.00
2022-08-10T20:33:09.878Z,100.00
2022-08-10T20:35:53.293Z,100.00
2022-08-10T20:38:35.875Z,100.00
2022-08-10T20:41:43.708Z,100.00
2022-08-10T20:44:22.532Z,100.00
2022-08-10T20:47:14.331Z,100.00
2022-08-10T20:49:54.717Z,100.00
2022-08-10T20:52:28.984Z,100.00
2022-08-10T20:55:01.912Z,100.00
2022-08-10T20:58:03.354Z,100.00
2022-08-10T21:01:04.956Z,100.00
2022-08-10T21:03:48.046Z,100.00
2022-08-10T21:06:43.911Z,100.00
2022-08-10T21:09:50.690Z,100.00
2022-08-10T21:12:27.604Z,100.00
2022-08-10T21:15:25.946Z,100.00
2022-08-10T21:18:20.493Z,100.00
2022-08-10T21:21:16.599Z,100.00
2022-08-10T21:23:49.420Z,100.00
2022-08-10T21:26:20.198Z,100.00
2022-08-10T21:29:09.589Z,100.00
2022-08-10T21:31:57.305Z,100.00
2022-08-10T21:34:34.824Z,100.00
2022-08-10T21:37:25.131Z,100.00
2022-08-10T21:40:35.255Z,100.00
2022-08-10T21:43:59.036Z,100.00
2022-08-10T21:47:10.800Z,100.00
2022-08-10T21:50:09.490Z,100.00
2022-08-10T21:53:00.882Z,100.00
2022-08-10T21:56:46.941Z,100.00
2022-08-10T21:59:42.063Z,100.00
2022-08-10T22:02:32.085Z,100.00
2022-08-10T22:05:20.370Z,100.00
2022-08-10T22:08:13.029Z,100.00
2022-08-10T22:11:14.358Z,100.00
2022-08-10T22:14:06.078Z,100.00
2022-08-10T22:17:04.317Z,100.00
2022-08-10T22:19:54.921Z,100.00
2022-08-10T22:22:56.286Z,100.00
2022-08-10T22:26:07.591Z,100.00
2022-08-10T22:29:12.707Z,100.00
2022-08-10T22:32:07.735Z,100.00
2022-08-10T22:34:59.487Z,100.00
2022-08-10T22:37:55.207Z,100.00
2022-08-10T22:40:42.326Z,100.00
2022-08-10T22:43:37.127Z,100.00
2022-08-10T22:46:27.934Z,100.00
2022-08-10T22:49:01.706Z,100.00
2022-08-10T22:51:50.542Z,100.00
2022-08-10T22:54:41.536Z,100.00
2022-08-10T22:57:32.600Z,100.00
2022-08-10T23:00:11.138Z,100.00
2022-08-10T23:02:55.607Z,100.00
2022-08-10T23:05:34.192Z,100.00
2022-08-10T23:08:09.150Z,100.00
2022-08-10T23:10:43.066Z,100.00
2022-08-10T23:13:35.466Z,100.00
2022-08-10T23:16:41.024Z,100.00
2022-08-10T23:19:23.307Z,100.00
2022-08-10T23:22:06.145Z,100.00
2022-08-10T23:24:38.795Z,100.00
2022-08-10T23:27:12.256Z,100.00
2022-08-10T23:30:04.014Z,100.00
2022-08-10T23:32:33.590Z,100.00
2022-08-10T23:36:21.358Z,100.00
2022-08-10T23:37:57.114Z,100.00
2022-08-10T23:40:26.360Z,100.00
2022-08-10T23:42:55.059Z,100.00
2022-08-10T23:45:24.370Z,100.00
2022-08-10T23:47:56.117Z,100.00
2022-08-10T23:50:24.596Z,100.00
2022-08-10T23:52:54.873Z,100.00
2022-08-10T23:55:29.391Z,100.00
2022-08-10T23:58:33.060Z,100.00
